sensor_id;sensor_type;location;lat;lon;timestamp;temperature;humidity
19340;HTU21D;9804;52.350;6.684;2022-12-29T00:01:36;13.00;-6.00
19340;HTU21D;9804;52.350;6.684;2022-12-29T00:04:02;13.14;-6.00
19340;HTU21D;9804;52.350;6.684;2022-12-29T00:06:28;13.15;-6.00
19340;HTU21D;9804;52.350;6.684;2022-12-29T00:08:53;13.19;-6.00
19340;HTU21D;9804;52.350;6.684;2022-12-29T00:11:22;13.16;-6.00
19340;HTU21D;9804;52.350;6.684;2022-12-29T00:13:48;13.04;-6.00
19340;HTU21D;9804;52.350;6.684;2022-12-29T00:16:34;13.24;-6.00
19340;HTU21D;9804;52.350;6.684;2022-12-29T00:18:59;13.19;-6.00
19340;HTU21D;9804;52.350;6.684;2022-12-29T00:21:26;13.16;-6.00
19340;HTU21D;9804;52.350;6.684;2022-12-29T00:24:14;13.24;-6.00
19340;HTU21D;9804;52.350;6.684;2022-12-29T00:29:50;13.22;-6.00
19340;HTU21D;9804;52.350;6.684;2022-12-29T00:32:35;13.14;-6.00
19340;HTU21D;9804;52.350;6.684;2022-12-29T00:37:50;13.33;-6.00
19340;HTU21D;9804;52.350;6.684;2022-12-29T00:40:34;13.24;-6.00
19340;HTU21D;9804;52.350;6.684;2022-12-29T00:43:17;13.31;-6.00
19340;HTU21D;9804;52.350;6.684;2022-12-29T00:46:01;13.26;-6.00
19340;HTU21D;9804;52.350;6.684;2022-12-29T00:48:27;13.33;-6.00
19340;HTU21D;9804;52.350;6.684;2022-12-29T00:51:10;13.26;-6.00
19340;HTU21D;9804;52.350;6.684;2022-12-29T00:53:36;13.24;-6.00
19340;HTU21D;9804;52.350;6.684;2022-12-29T00:56:01;13.31;-6.00
19340;HTU21D;9804;52.350;6.684;2022-12-29T00:58:30;13.29;-6.00
19340;HTU21D;9804;52.350;6.684;2022-12-29T01:01:06;13.18;-6.00
19340;HTU21D;9804;52.350;6.684;2022-12-29T01:03:33;13.29;-6.00
19340;HTU21D;9804;52.350;6.684;2022-12-29T01:06:07;13.34;-6.00
19340;HTU21D;9804;52.350;6.684;2022-12-29T01:08:33;13.34;-6.00
19340;HTU21D;9804;52.350;6.684;2022-12-29T01:11:04;13.27;-6.00
19340;HTU21D;9804;52.350;6.684;2022-12-29T01:13:30;13.41;-6.00
19340;HTU21D;9804;52.350;6.684;2022-12-29T01:15:56;13.25;-6.00
19340;HTU21D;9804;52.350;6.684;2022-12-29T01:18:23;13.17;-6.00
19340;HTU21D;9804;52.350;6.684;2022-12-29T01:20:48;13.07;-6.00
19340;HTU21D;9804;52.350;6.684;2022-12-29T01:23:14;13.37;-6.00
19340;HTU21D;9804;52.350;6.684;2022-12-29T01:25:39;13.20;-6.00
19340;HTU21D;9804;52.350;6.684;2022-12-29T01:28:05;13.30;-6.00
19340;HTU21D;9804;52.350;6.684;2022-12-29T01:30:32;13.50;-6.00
19340;HTU21D;9804;52.350;6.684;2022-12-29T01:32:58;13.16;-6.00
19340;HTU21D;9804;52.350;6.684;2022-12-29T01:35:24;13.32;-6.00
19340;HTU21D;9804;52.350;6.684;2022-12-29T01:37:49;13.25;-6.00
19340;HTU21D;9804;52.350;6.684;2022-12-29T01:40:14;13.20;-6.00
19340;HTU21D;9804;52.350;6.684;2022-12-29T01:42:40;13.32;-6.00
19340;HTU21D;9804;52.350;6.684;2022-12-29T01:45:11;13.23;-6.00
19340;HTU21D;9804;52.350;6.684;2022-12-29T01:47:58;13.12;-6.00
19340;HTU21D;9804;52.350;6.684;2022-12-29T01:50:29;13.12;-6.00
19340;HTU21D;9804;52.350;6.684;2022-12-29T01:53:20;13.34;-6.00
19340;HTU21D;9804;52.350;6.684;2022-12-29T01:55:52;13.05;-6.00
19340;HTU21D;9804;52.350;6.684;2022-12-29T01:58:21;13.22;-6.00
19340;HTU21D;9804;52.350;6.684;2022-12-29T02:00:48;13.20;-6.00
19340;HTU21D;9804;52.350;6.684;2022-12-29T02:03:14;13.27;-6.00
19340;HTU21D;9804;52.350;6.684;2022-12-29T02:05:49;13.25;-6.00
19340;HTU21D;9804;52.350;6.684;2022-12-29T02:08:19;13.18;-6.00
19340;HTU21D;9804;52.350;6.684;2022-12-29T02:10:45;13.06;-6.00
19340;HTU21D;9804;52.350;6.684;2022-12-29T02:13:15;12.93;-6.00
19340;HTU21D;9804;52.350;6.684;2022-12-29T02:15:54;13.03;-6.00
19340;HTU21D;9804;52.350;6.684;2022-12-29T02:18:47;12.99;-6.00
19340;HTU21D;9804;52.350;6.684;2022-12-29T02:33:01;12.92;-6.00
19340;HTU21D;9804;52.350;6.684;2022-12-29T02:35:35;12.82;-6.00
19340;HTU21D;9804;52.350;6.684;2022-12-29T02:40:58;12.79;-6.00
19340;HTU21D;9804;52.350;6.684;2022-12-29T02:43:43;13.03;-6.00
19340;HTU21D;9804;52.350;6.684;2022-12-29T02:46:20;12.99;-6.00
19340;HTU21D;9804;52.350;6.684;2022-12-29T02:52:07;12.97;-6.00
19340;HTU21D;9804;52.350;6.684;2022-12-29T02:54:35;13.11;-6.00
19340;HTU21D;9804;52.350;6.684;2022-12-29T03:00:12;12.97;-6.00
19340;HTU21D;9804;52.350;6.684;2022-12-29T03:03:16;13.02;-6.00
19340;HTU21D;9804;52.350;6.684;2022-12-29T03:11:02;13.12;-6.00
19340;HTU21D;9804;52.350;6.684;2022-12-29T03:13:49;13.21;-6.00
19340;HTU21D;9804;52.350;6.684;2022-12-29T03:16:45;13.26;-6.00
19340;HTU21D;9804;52.350;6.684;2022-12-29T03:19:26;13.17;-6.00
19340;HTU21D;9804;52.350;6.684;2022-12-29T03:22:21;13.18;-6.00
19340;HTU21D;9804;52.350;6.684;2022-12-29T03:25:02;13.29;-6.00
19340;HTU21D;9804;52.350;6.684;2022-12-29T03:27:32;13.02;-6.00
19340;HTU21D;9804;52.350;6.684;2022-12-29T03:30:03;12.92;-6.00
19340;HTU21D;9804;52.350;6.684;2022-12-29T03:32:45;12.89;-6.00
19340;HTU21D;9804;52.350;6.684;2022-12-29T03:35:13;12.64;-6.00
19340;HTU21D;9804;52.350;6.684;2022-12-29T03:37:43;12.61;-6.00
19340;HTU21D;9804;52.350;6.684;2022-12-29T03:40:10;12.48;-6.00
19340;HTU21D;9804;52.350;6.684;2022-12-29T03:42:36;12.55;-6.00
19340;HTU21D;9804;52.350;6.684;2022-12-29T03:45:05;12.66;-6.00
19340;HTU21D;9804;52.350;6.684;2022-12-29T03:47:31;12.63;-6.00
19340;HTU21D;9804;52.350;6.684;2022-12-29T03:49:57;12.73;-6.00
19340;HTU21D;9804;52.350;6.684;2022-12-29T03:52:22;12.53;-6.00
19340;HTU21D;9804;52.350;6.684;2022-12-29T03:54:47;12.44;14.40
19340;HTU21D;9804;52.350;6.684;2022-12-29T03:57:13;12.67;-4.92
19340;HTU21D;9804;52.350;6.684;2022-12-29T03:59:38;12.53;-6.00
19340;HTU21D;9804;52.350;6.684;2022-12-29T04:02:03;12.78;-6.00
19340;HTU21D;9804;52.350;6.684;2022-12-29T04:04:29;12.88;-6.00
19340;HTU21D;9804;52.350;6.684;2022-12-29T04:06:54;12.72;-6.00
19340;HTU21D;9804;52.350;6.684;2022-12-29T04:09:20;12.72;-6.00
19340;HTU21D;9804;52.350;6.684;2022-12-29T04:11:45;12.61;-6.00
19340;HTU21D;9804;52.350;6.684;2022-12-29T04:14:10;12.79;-6.00
19340;HTU21D;9804;52.350;6.684;2022-12-29T04:16:36;12.80;-6.00
19340;HTU21D;9804;52.350;6.684;2022-12-29T04:19:04;12.79;-6.00
19340;HTU21D;9804;52.350;6.684;2022-12-29T04:21:29;12.84;-6.00
19340;HTU21D;9804;52.350;6.684;2022-12-29T04:23:55;12.80;-6.00
19340;HTU21D;9804;52.350;6.684;2022-12-29T04:26:20;12.85;-6.00
19340;HTU21D;9804;52.350;6.684;2022-12-29T04:28:46;12.80;-6.00
19340;HTU21D;9804;52.350;6.684;2022-12-29T04:31:11;12.74;-6.00
19340;HTU21D;9804;52.350;6.684;2022-12-29T04:33:36;12.76;-6.00
19340;HTU21D;9804;52.350;6.684;2022-12-29T04:36:02;12.77;-6.00
19340;HTU21D;9804;52.350;6.684;2022-12-29T04:38:27;12.74;-6.00
19340;HTU21D;9804;52.350;6.684;2022-12-29T04:40:53;12.81;-6.00
19340;HTU21D;9804;52.350;6.684;2022-12-29T04:43:18;12.75;-6.00
19340;HTU21D;9804;52.350;6.684;2022-12-29T04:45:45;12.96;-6.00
19340;HTU21D;9804;52.350;6.684;2022-12-29T04:48:11;12.87;-6.00
19340;HTU21D;9804;52.350;6.684;2022-12-29T04:50:36;12.89;-6.00
19340;HTU21D;9804;52.350;6.684;2022-12-29T04:53:02;13.08;-6.00
19340;HTU21D;9804;52.350;6.684;2022-12-29T04:55:27;13.04;-6.00
19340;HTU21D;9804;52.350;6.684;2022-12-29T04:57:53;13.02;-6.00
19340;HTU21D;9804;52.350;6.684;2022-12-29T05:00:18;13.17;-6.00
19340;HTU21D;9804;52.350;6.684;2022-12-29T05:02:45;13.18;-6.00
19340;HTU21D;9804;52.350;6.684;2022-12-29T05:05:10;13.04;-6.00
19340;HTU21D;9804;52.350;6.684;2022-12-29T05:07:36;13.24;-6.00
19340;HTU21D;9804;52.350;6.684;2022-12-29T05:10:01;13.03;-6.00
19340;HTU21D;9804;52.350;6.684;2022-12-29T05:12:30;13.14;-6.00
19340;HTU21D;9804;52.350;6.684;2022-12-29T05:14:56;13.09;-6.00
19340;HTU21D;9804;52.350;6.684;2022-12-29T05:17:21;13.10;-6.00
19340;HTU21D;9804;52.350;6.684;2022-12-29T05:19:46;13.22;-6.00
19340;HTU21D;9804;52.350;6.684;2022-12-29T05:22:12;13.25;-6.00
19340;HTU21D;9804;52.350;6.684;2022-12-29T05:24:37;13.21;-6.00
19340;HTU21D;9804;52.350;6.684;2022-12-29T05:27:03;13.25;-6.00
19340;HTU21D;9804;52.350;6.684;2022-12-29T05:29:28;13.15;-6.00
19340;HTU21D;9804;52.350;6.684;2022-12-29T05:31:53;13.20;-6.00
19340;HTU21D;9804;52.350;6.684;2022-12-29T05:34:19;13.15;-6.00
19340;HTU21D;9804;52.350;6.684;2022-12-29T05:36:44;13.11;-6.00
19340;HTU21D;9804;52.350;6.684;2022-12-29T05:39:09;13.10;-6.00
19340;HTU21D;9804;52.350;6.684;2022-12-29T05:41:35;13.05;-6.00
19340;HTU21D;9804;52.350;6.684;2022-12-29T05:44:00;12.90;-6.00
19340;HTU21D;9804;52.350;6.684;2022-12-29T05:46:26;12.88;-6.00
19340;HTU21D;9804;52.350;6.684;2022-12-29T05:48:51;12.78;-6.00
19340;HTU21D;9804;52.350;6.684;2022-12-29T05:51:16;12.97;-6.00
19340;HTU21D;9804;52.350;6.684;2022-12-29T05:53:42;12.80;-6.00
19340;HTU21D;9804;52.350;6.684;2022-12-29T05:56:07;12.87;-6.00
19340;HTU21D;9804;52.350;6.684;2022-12-29T05:58:33;12.72;-6.00
19340;HTU21D;9804;52.350;6.684;2022-12-29T06:00:58;12.77;-6.00
19340;HTU21D;9804;52.350;6.684;2022-12-29T06:03:23;12.77;-6.00
19340;HTU21D;9804;52.350;6.684;2022-12-29T06:05:49;12.92;-6.00
19340;HTU21D;9804;52.350;6.684;2022-12-29T06:08:14;12.84;-6.00
19340;HTU21D;9804;52.350;6.684;2022-12-29T06:10:39;12.74;-6.00
19340;HTU21D;9804;52.350;6.684;2022-12-29T06:13:05;12.73;-6.00
19340;HTU21D;9804;52.350;6.684;2022-12-29T06:15:32;12.69;-6.00
19340;HTU21D;9804;52.350;6.684;2022-12-29T06:17:58;12.67;-6.00
19340;HTU21D;9804;52.350;6.684;2022-12-29T06:20:23;12.70;-6.00
19340;HTU21D;9804;52.350;6.684;2022-12-29T06:22:49;12.52;-6.00
19340;HTU21D;9804;52.350;6.684;2022-12-29T06:25:14;12.61;-6.00
19340;HTU21D;9804;52.350;6.684;2022-12-29T06:27:40;12.55;-6.00
19340;HTU21D;9804;52.350;6.684;2022-12-29T06:30:06;12.55;-6.00
19340;HTU21D;9804;52.350;6.684;2022-12-29T06:32:31;12.49;-6.00
19340;HTU21D;9804;52.350;6.684;2022-12-29T06:34:56;12.46;-6.00
19340;HTU21D;9804;52.350;6.684;2022-12-29T06:37:22;12.57;-6.00
19340;HTU21D;9804;52.350;6.684;2022-12-29T06:39:47;12.50;-6.00
19340;HTU21D;9804;52.350;6.684;2022-12-29T06:42:13;12.57;-6.00
19340;HTU21D;9804;52.350;6.684;2022-12-29T06:44:38;12.64;-6.00
19340;HTU21D;9804;52.350;6.684;2022-12-29T06:47:03;12.55;-6.00
19340;HTU21D;9804;52.350;6.684;2022-12-29T06:49:29;12.41;-6.00
19340;HTU21D;9804;52.350;6.684;2022-12-29T06:51:54;12.40;-6.00
19340;HTU21D;9804;52.350;6.684;2022-12-29T06:54:19;12.37;-6.00
19340;HTU21D;9804;52.350;6.684;2022-12-29T06:56:45;12.27;-6.00
19340;HTU21D;9804;52.350;6.684;2022-12-29T06:59:10;12.32;-6.00
19340;HTU21D;9804;52.350;6.684;2022-12-29T07:01:36;12.35;-6.00
19340;HTU21D;9804;52.350;6.684;2022-12-29T07:04:02;12.19;-6.00
19340;HTU21D;9804;52.350;6.684;2022-12-29T07:06:27;12.16;-6.00
19340;HTU21D;9804;52.350;6.684;2022-12-29T07:08:53;12.38;-6.00
19340;HTU21D;9804;52.350;6.684;2022-12-29T07:11:21;12.28;-6.00
19340;HTU21D;9804;52.350;6.684;2022-12-29T07:13:46;12.11;-6.00
19340;HTU21D;9804;52.350;6.684;2022-12-29T07:16:12;12.20;-6.00
19340;HTU21D;9804;52.350;6.684;2022-12-29T07:18:37;12.19;-6.00
19340;HTU21D;9804;52.350;6.684;2022-12-29T07:21:03;12.26;-6.00
19340;HTU21D;9804;52.350;6.684;2022-12-29T07:23:28;12.15;-6.00
19340;HTU21D;9804;52.350;6.684;2022-12-29T07:26:06;12.21;-6.00
19340;HTU21D;9804;52.350;6.684;2022-12-29T07:28:32;12.23;-6.00
19340;HTU21D;9804;52.350;6.684;2022-12-29T07:30:58;12.12;-6.00
19340;HTU21D;9804;52.350;6.684;2022-12-29T07:33:24;12.19;-6.00
19340;HTU21D;9804;52.350;6.684;2022-12-29T07:35:49;12.04;-6.00
19340;HTU21D;9804;52.350;6.684;2022-12-29T07:38:15;12.18;-6.00
19340;HTU21D;9804;52.350;6.684;2022-12-29T07:40:42;12.12;-6.00
19340;HTU21D;9804;52.350;6.684;2022-12-29T07:43:07;12.07;-6.00
19340;HTU21D;9804;52.350;6.684;2022-12-29T07:45:32;12.21;-6.00
19340;HTU21D;9804;52.350;6.684;2022-12-29T07:47:58;12.17;-6.00
19340;HTU21D;9804;52.350;6.684;2022-12-29T07:50:23;12.36;-6.00
19340;HTU21D;9804;52.350;6.684;2022-12-29T07:52:48;12.12;-6.00
19340;HTU21D;9804;52.350;6.684;2022-12-29T07:55:15;12.18;-6.00
19340;HTU21D;9804;52.350;6.684;2022-12-29T07:57:41;12.31;-6.00
19340;HTU21D;9804;52.350;6.684;2022-12-29T08:00:07;12.18;-6.00
19340;HTU21D;9804;52.350;6.684;2022-12-29T08:02:33;12.11;-6.00
19340;HTU21D;9804;52.350;6.684;2022-12-29T08:04:58;12.03;-6.00
19340;HTU21D;9804;52.350;6.684;2022-12-29T08:07:23;11.81;-6.00
19340;HTU21D;9804;52.350;6.684;2022-12-29T08:09:49;11.88;-6.00
19340;HTU21D;9804;52.350;6.684;2022-12-29T08:12:14;11.81;-6.00
19340;HTU21D;9804;52.350;6.684;2022-12-29T08:14:39;11.69;-6.00
19340;HTU21D;9804;52.350;6.684;2022-12-29T08:17:05;11.68;-6.00
19340;HTU21D;9804;52.350;6.684;2022-12-29T08:19:30;11.42;-6.00
19340;HTU21D;9804;52.350;6.684;2022-12-29T08:21:56;11.62;-6.00
19340;HTU21D;9804;52.350;6.684;2022-12-29T08:24:21;11.51;-6.00
19340;HTU21D;9804;52.350;6.684;2022-12-29T08:26:46;11.53;-6.00
19340;HTU21D;9804;52.350;6.684;2022-12-29T08:29:12;11.43;-6.00
19340;HTU21D;9804;52.350;6.684;2022-12-29T08:31:37;11.24;-6.00
19340;HTU21D;9804;52.350;6.684;2022-12-29T08:34:03;11.22;-6.00
19340;HTU21D;9804;52.350;6.684;2022-12-29T08:36:29;11.10;-6.00
19340;HTU21D;9804;52.350;6.684;2022-12-29T08:38:56;11.13;-6.00
19340;HTU21D;9804;52.350;6.684;2022-12-29T08:41:21;11.18;-6.00
19340;HTU21D;9804;52.350;6.684;2022-12-29T08:43:48;11.16;-6.00
19340;HTU21D;9804;52.350;6.684;2022-12-29T08:46:14;11.08;-6.00
19340;HTU21D;9804;52.350;6.684;2022-12-29T08:48:40;11.29;-6.00
19340;HTU21D;9804;52.350;6.684;2022-12-29T08:51:05;11.23;-6.00
19340;HTU21D;9804;52.350;6.684;2022-12-29T08:53:31;11.18;-6.00
19340;HTU21D;9804;52.350;6.684;2022-12-29T08:55:58;11.41;-6.00
19340;HTU21D;9804;52.350;6.684;2022-12-29T08:58:24;11.51;-6.00
19340;HTU21D;9804;52.350;6.684;2022-12-29T09:00:55;11.58;-6.00
19340;HTU21D;9804;52.350;6.684;2022-12-29T09:03:21;11.62;-6.00
19340;HTU21D;9804;52.350;6.684;2022-12-29T09:05:48;11.69;-6.00
19340;HTU21D;9804;52.350;6.684;2022-12-29T09:08:14;11.62;-6.00
19340;HTU21D;9804;52.350;6.684;2022-12-29T09:10:39;11.75;-6.00
19340;HTU21D;9804;52.350;6.684;2022-12-29T09:13:05;11.75;-6.00
19340;HTU21D;9804;52.350;6.684;2022-12-29T09:15:30;11.81;-6.00
19340;HTU21D;9804;52.350;6.684;2022-12-29T09:17:55;11.97;-6.00
19340;HTU21D;9804;52.350;6.684;2022-12-29T09:20:21;11.94;-6.00
19340;HTU21D;9804;52.350;6.684;2022-12-29T09:22:46;12.07;-6.00
19340;HTU21D;9804;52.350;6.684;2022-12-29T09:25:12;12.00;-6.00
19340;HTU21D;9804;52.350;6.684;2022-12-29T09:27:38;12.02;-6.00
19340;HTU21D;9804;52.350;6.684;2022-12-29T09:30:06;12.02;-6.00
19340;HTU21D;9804;52.350;6.684;2022-12-29T09:32:32;12.17;-6.00
19340;HTU21D;9804;52.350;6.684;2022-12-29T09:34:58;12.05;-6.00
19340;HTU21D;9804;52.350;6.684;2022-12-29T09:37:23;12.28;-6.00
19340;HTU21D;9804;52.350;6.684;2022-12-29T09:39:49;12.33;-6.00
19340;HTU21D;9804;52.350;6.684;2022-12-29T09:42:22;12.45;-6.00
19340;HTU21D;9804;52.350;6.684;2022-12-29T09:45:05;12.38;-6.00
19340;HTU21D;9804;52.350;6.684;2022-12-29T09:47:34;12.53;-6.00
19340;HTU21D;9804;52.350;6.684;2022-12-29T09:50:28;12.26;-6.00
19340;HTU21D;9804;52.350;6.684;2022-12-29T09:53:25;12.12;-6.00
19340;HTU21D;9804;52.350;6.684;2022-12-29T09:55:55;12.08;-6.00
19340;HTU21D;9804;52.350;6.684;2022-12-29T09:58:26;12.00;-6.00
19340;HTU21D;9804;52.350;6.684;2022-12-29T10:01:27;12.08;-6.00
19340;HTU21D;9804;52.350;6.684;2022-12-29T10:03:56;12.13;-6.00
19340;HTU21D;9804;52.350;6.684;2022-12-29T10:06:25;12.22;-6.00
19340;HTU21D;9804;52.350;6.684;2022-12-29T10:12:00;12.44;-6.00
19340;HTU21D;9804;52.350;6.684;2022-12-29T10:22:32;12.48;-6.00
19340;HTU21D;9804;52.350;6.684;2022-12-29T10:25:02;12.73;-6.00
19340;HTU21D;9804;52.350;6.684;2022-12-29T10:27:31;12.45;-6.00
19340;HTU21D;9804;52.350;6.684;2022-12-29T10:29:59;12.59;-6.00
19340;HTU21D;9804;52.350;6.684;2022-12-29T10:35:12;12.48;-6.00
19340;HTU21D;9804;52.350;6.684;2022-12-29T10:40:27;12.57;-6.00
19340;HTU21D;9804;52.350;6.684;2022-12-29T10:42:57;12.67;-6.00
19340;HTU21D;9804;52.350;6.684;2022-12-29T10:45:27;12.60;-6.00
19340;HTU21D;9804;52.350;6.684;2022-12-29T10:48:12;12.62;-6.00
19340;HTU21D;9804;52.350;6.684;2022-12-29T10:50:43;12.66;-6.00
19340;HTU21D;9804;52.350;6.684;2022-12-29T10:53:18;12.55;-6.00
19340;HTU21D;9804;52.350;6.684;2022-12-29T10:55:45;12.56;-6.00
19340;HTU21D;9804;52.350;6.684;2022-12-29T10:58:13;12.38;-6.00
19340;HTU21D;9804;52.350;6.684;2022-12-29T11:00:50;12.35;-6.00
19340;HTU21D;9804;52.350;6.684;2022-12-29T11:06:13;12.38;-6.00
19340;HTU21D;9804;52.350;6.684;2022-12-29T11:08:56;12.27;-6.00
19340;HTU21D;9804;52.350;6.684;2022-12-29T11:11:32;12.36;-6.00
19340;HTU21D;9804;52.350;6.684;2022-12-29T11:14:14;12.23;-6.00
19340;HTU21D;9804;52.350;6.684;2022-12-29T11:16:42;12.20;-6.00
19340;HTU21D;9804;52.350;6.684;2022-12-29T11:19:23;12.25;-6.00
19340;HTU21D;9804;52.350;6.684;2022-12-29T11:21:50;12.34;-6.00
19340;HTU21D;9804;52.350;6.684;2022-12-29T11:24:26;12.26;-6.00
19340;HTU21D;9804;52.350;6.684;2022-12-29T11:26:54;12.27;-6.00
19340;HTU21D;9804;52.350;6.684;2022-12-29T11:29:37;12.07;-6.00
19340;HTU21D;9804;52.350;6.684;2022-12-29T11:32:11;12.21;-6.00
19340;HTU21D;9804;52.350;6.684;2022-12-29T11:34:37;12.21;-6.00
19340;HTU21D;9804;52.350;6.684;2022-12-29T11:37:13;12.10;-6.00
19340;HTU21D;9804;52.350;6.684;2022-12-29T11:39:58;12.10;-6.00
19340;HTU21D;9804;52.350;6.684;2022-12-29T11:42:48;11.99;-6.00
19340;HTU21D;9804;52.350;6.684;2022-12-29T11:45:19;11.98;-6.00
19340;HTU21D;9804;52.350;6.684;2022-12-29T11:47:47;12.06;-6.00
19340;HTU21D;9804;52.350;6.684;2022-12-29T11:50:29;12.06;-6.00
19340;HTU21D;9804;52.350;6.684;2022-12-29T11:53:03;12.04;-6.00
19340;HTU21D;9804;52.350;6.684;2022-12-29T11:55:30;12.20;-6.00
19340;HTU21D;9804;52.350;6.684;2022-12-29T11:57:58;12.40;-6.00
19340;HTU21D;9804;52.350;6.684;2022-12-29T12:00:27;12.33;-6.00
19340;HTU21D;9804;52.350;6.684;2022-12-29T12:03:02;12.28;-6.00
19340;HTU21D;9804;52.350;6.684;2022-12-29T12:05:35;12.21;-6.00
19340;HTU21D;9804;52.350;6.684;2022-12-29T12:08:17;12.17;-6.00
19340;HTU21D;9804;52.350;6.684;2022-12-29T12:10:58;12.34;-6.00
19340;HTU21D;9804;52.350;6.684;2022-12-29T12:13:36;12.29;-6.00
19340;HTU21D;9804;52.350;6.684;2022-12-29T12:16:09;12.20;-6.00
19340;HTU21D;9804;52.350;6.684;2022-12-29T12:18:41;12.10;-6.00
19340;HTU21D;9804;52.350;6.684;2022-12-29T12:21:15;12.11;-6.00
19340;HTU21D;9804;52.350;6.684;2022-12-29T12:24:03;12.26;-6.00
19340;HTU21D;9804;52.350;6.684;2022-12-29T12:29:18;12.27;-6.00
19340;HTU21D;9804;52.350;6.684;2022-12-29T12:32:35;12.35;-6.00
19340;HTU21D;9804;52.350;6.684;2022-12-29T12:34:44;12.18;-6.00
19340;HTU21D;9804;52.350;6.684;2022-12-29T12:37:47;12.21;-6.00
19340;HTU21D;9804;52.350;6.684;2022-12-29T12:40:37;12.13;-6.00
19340;HTU21D;9804;52.350;6.684;2022-12-29T12:43:21;12.20;-6.00
19340;HTU21D;9804;52.350;6.684;2022-12-29T12:48:52;12.18;-6.00
19340;HTU21D;9804;52.350;6.684;2022-12-29T12:51:33;12.30;-6.00
19340;HTU21D;9804;52.350;6.684;2022-12-29T13:00:02;11.84;-6.00
19340;HTU21D;9804;52.350;6.684;2022-12-29T13:11:50;12.12;-6.00
19340;HTU21D;9804;52.350;6.684;2022-12-29T13:14:08;11.98;-6.00
19340;HTU21D;9804;52.350;6.684;2022-12-29T13:16:54;12.04;-6.00
19340;HTU21D;9804;52.350;6.684;2022-12-29T13:19:34;12.30;-6.00
19340;HTU21D;9804;52.350;6.684;2022-12-29T13:25:18;12.16;-6.00
19340;HTU21D;9804;52.350;6.684;2022-12-29T13:36:00;12.26;-6.00
19340;HTU21D;9804;52.350;6.684;2022-12-29T13:38:32;12.29;-6.00
19340;HTU21D;9804;52.350;6.684;2022-12-29T13:41:04;12.34;-6.00
19340;HTU21D;9804;52.350;6.684;2022-12-29T13:43:32;12.16;-6.00
19340;HTU21D;9804;52.350;6.684;2022-12-29T13:46:04;12.34;-6.00
19340;HTU21D;9804;52.350;6.684;2022-12-29T13:48:39;12.37;-6.00
19340;HTU21D;9804;52.350;6.684;2022-12-29T13:51:05;12.44;-6.00
19340;HTU21D;9804;52.350;6.684;2022-12-29T14:00:00;12.27;-6.00
19340;HTU21D;9804;52.350;6.684;2022-12-29T14:07:49;12.30;-6.00
19340;HTU21D;9804;52.350;6.684;2022-12-29T14:15:40;12.48;-6.00
19340;HTU21D;9804;52.350;6.684;2022-12-29T14:18:18;12.44;-6.00
19340;HTU21D;9804;52.350;6.684;2022-12-29T14:20:59;12.40;-6.00
19340;HTU21D;9804;52.350;6.684;2022-12-29T14:23:36;12.46;-6.00
19340;HTU21D;9804;52.350;6.684;2022-12-29T14:28:31;12.48;-6.00
19340;HTU21D;9804;52.350;6.684;2022-12-29T14:30:59;12.34;-6.00
19340;HTU21D;9804;52.350;6.684;2022-12-29T14:33:27;12.41;-6.00
19340;HTU21D;9804;52.350;6.684;2022-12-29T14:35:54;12.35;-6.00
19340;HTU21D;9804;52.350;6.684;2022-12-29T14:38:26;12.35;-6.00
19340;HTU21D;9804;52.350;6.684;2022-12-29T14:40:52;12.49;-6.00
19340;HTU21D;9804;52.350;6.684;2022-12-29T14:43:21;12.37;-6.00
19340;HTU21D;9804;52.350;6.684;2022-12-29T14:45:59;12.34;-6.00
19340;HTU21D;9804;52.350;6.684;2022-12-29T14:48:43;12.25;-6.00
19340;HTU21D;9804;52.350;6.684;2022-12-29T14:51:25;11.98;-6.00
19340;HTU21D;9804;52.350;6.684;2022-12-29T14:53:52;11.98;-6.00
19340;HTU21D;9804;52.350;6.684;2022-12-29T14:56:20;12.06;-6.00
19340;HTU21D;9804;52.350;6.684;2022-12-29T14:59:03;12.10;-6.00
19340;HTU21D;9804;52.350;6.684;2022-12-29T15:04:00;12.20;-6.00
19340;HTU21D;9804;52.350;6.684;2022-12-29T15:06:29;12.12;-6.00
19340;HTU21D;9804;52.350;6.684;2022-12-29T15:09:04;12.19;-6.00
19340;HTU21D;9804;52.350;6.684;2022-12-29T15:11:44;11.99;-6.00
19340;HTU21D;9804;52.350;6.684;2022-12-29T15:14:33;12.20;-6.00
19340;HTU21D;9804;52.350;6.684;2022-12-29T15:17:00;11.99;-6.00
19340;HTU21D;9804;52.350;6.684;2022-12-29T15:19:27;12.05;-6.00
19340;HTU21D;9804;52.350;6.684;2022-12-29T15:21:54;12.04;-6.00
19340;HTU21D;9804;52.350;6.684;2022-12-29T15:24:20;12.13;-6.00
19340;HTU21D;9804;52.350;6.684;2022-12-29T15:26:48;12.20;-6.00
19340;HTU21D;9804;52.350;6.684;2022-12-29T15:29:31;12.04;-6.00
19340;HTU21D;9804;52.350;6.684;2022-12-29T15:32:00;12.02;-6.00
19340;HTU21D;9804;52.350;6.684;2022-12-29T15:34:29;12.12;-6.00
19340;HTU21D;9804;52.350;6.684;2022-12-29T15:36:55;11.93;-6.00
19340;HTU21D;9804;52.350;6.684;2022-12-29T15:39:30;11.97;-6.00
19340;HTU21D;9804;52.350;6.684;2022-12-29T15:42:01;11.93;-6.00
19340;HTU21D;9804;52.350;6.684;2022-12-29T15:44:38;11.94;-6.00
19340;HTU21D;9804;52.350;6.684;2022-12-29T15:47:08;11.92;-6.00
19340;HTU21D;9804;52.350;6.684;2022-12-29T15:49:36;11.69;-6.00
19340;HTU21D;9804;52.350;6.684;2022-12-29T15:52:06;11.75;-6.00
19340;HTU21D;9804;52.350;6.684;2022-12-29T15:54:33;11.81;-6.00
19340;HTU21D;9804;52.350;6.684;2022-12-29T15:56:58;11.47;-6.00
19340;HTU21D;9804;52.350;6.684;2022-12-29T15:59:29;11.29;-6.00
19340;HTU21D;9804;52.350;6.684;2022-12-29T16:01:56;11.39;-6.00
19340;HTU21D;9804;52.350;6.684;2022-12-29T16:04:23;11.25;-6.00
19340;HTU21D;9804;52.350;6.684;2022-12-29T16:06:57;11.42;-6.00
19340;HTU21D;9804;52.350;6.684;2022-12-29T16:09:33;11.49;-6.00
19340;HTU21D;9804;52.350;6.684;2022-12-29T16:12:03;11.46;-6.00
19340;HTU21D;9804;52.350;6.684;2022-12-29T16:14:54;11.34;-6.00
19340;HTU21D;9804;52.350;6.684;2022-12-29T16:17:22;11.54;-6.00
19340;HTU21D;9804;52.350;6.684;2022-12-29T16:20:03;11.36;-6.00
19340;HTU21D;9804;52.350;6.684;2022-12-29T16:22:36;11.33;-6.00
19340;HTU21D;9804;52.350;6.684;2022-12-29T16:25:12;11.41;-6.00
19340;HTU21D;9804;52.350;6.684;2022-12-29T16:27:42;11.43;-6.00
19340;HTU21D;9804;52.350;6.684;2022-12-29T16:30:20;11.39;-6.00
19340;HTU21D;9804;52.350;6.684;2022-12-29T16:32:55;11.46;-6.00
19340;HTU21D;9804;52.350;6.684;2022-12-29T16:38:22;11.41;-6.00
19340;HTU21D;9804;52.350;6.684;2022-12-29T16:50:51;11.34;-6.00
19340;HTU21D;9804;52.350;6.684;2022-12-29T16:53:28;11.48;-6.00
19340;HTU21D;9804;52.350;6.684;2022-12-29T16:55:55;11.56;-6.00
19340;HTU21D;9804;52.350;6.684;2022-12-29T16:58:24;11.41;-6.00
19340;HTU21D;9804;52.350;6.684;2022-12-29T17:00:55;11.56;-6.00
19340;HTU21D;9804;52.350;6.684;2022-12-29T17:03:23;11.61;-6.00
19340;HTU21D;9804;52.350;6.684;2022-12-29T17:05:52;11.77;-6.00
19340;HTU21D;9804;52.350;6.684;2022-12-29T17:08:19;11.59;-6.00
19340;HTU21D;9804;52.350;6.684;2022-12-29T17:10:53;11.57;-6.00
19340;HTU21D;9804;52.350;6.684;2022-12-29T17:13:38;11.43;-6.00
19340;HTU21D;9804;52.350;6.684;2022-12-29T17:16:05;11.53;-6.00
19340;HTU21D;9804;52.350;6.684;2022-12-29T17:18:33;11.46;-6.00
19340;HTU21D;9804;52.350;6.684;2022-12-29T17:20:59;11.61;-6.00
19340;HTU21D;9804;52.350;6.684;2022-12-29T17:23:24;11.59;-6.00
19340;HTU21D;9804;52.350;6.684;2022-12-29T17:25:51;11.62;-6.00
19340;HTU21D;9804;52.350;6.684;2022-12-29T17:28:26;11.71;-6.00
19340;HTU21D;9804;52.350;6.684;2022-12-29T17:30:53;11.61;-6.00
19340;HTU21D;9804;52.350;6.684;2022-12-29T17:33:20;11.63;-6.00
19340;HTU21D;9804;52.350;6.684;2022-12-29T17:35:46;11.54;-6.00
19340;HTU21D;9804;52.350;6.684;2022-12-29T17:38:22;11.63;-6.00
19340;HTU21D;9804;52.350;6.684;2022-12-29T17:40:48;11.72;-6.00
19340;HTU21D;9804;52.350;6.684;2022-12-29T17:43:15;11.49;-6.00
19340;HTU21D;9804;52.350;6.684;2022-12-29T17:45:41;11.58;-6.00
19340;HTU21D;9804;52.350;6.684;2022-12-29T17:48:12;11.44;-6.00